createdAt,value
2017-10-04T00:00:23.350Z,17.80
2017-10-04T00:02:51.643Z,17.90
2017-10-04T00:05:19.126Z,17.90
2017-10-04T00:07:46.654Z,17.90
2017-10-04T00:10:14.960Z,17.80
2017-10-04T00:12:42.519Z,17.70
2017-10-04T00:15:10.022Z,17.90
2017-10-04T00:17:37.520Z,17.80
2017-10-04T00:20:05.017Z,18.00
2017-10-04T00:22:32.499Z,18.00
2017-10-04T00:25:00.007Z,18.00
2017-10-04T00:27:27.515Z,17.90
2017-10-04T00:29:55.014Z,17.80
2017-10-04T00:32:23.263Z,17.60
2017-10-04T00:34:50.738Z,17.60
2017-10-04T00:37:19.002Z,17.60
2017-10-04T00:39:46.504Z,17.60
2017-10-04T00:42:13.995Z,17.60
2017-10-04T00:44:41.469Z,17.60
2017-10-04T00:47:10.467Z,17.40
2017-10-04T00:49:37.946Z,17.40
2017-10-04T00:52:06.185Z,17.40
2017-10-04T00:54:33.670Z,17.40
2017-10-04T00:57:01.160Z,17.40
2017-10-04T00:59:28.646Z,17.40
2017-10-04T01:01:56.125Z,17.50
2017-10-04T01:04:23.628Z,17.50
2017-10-04T01:06:51.118Z,17.40
2017-10-04T01:09:18.606Z,17.40
2017-10-04T01:11:46.107Z,17.40
2017-10-04T01:14:13.602Z,17.40
2017-10-04T01:16:41.143Z,17.30
2017-10-04T01:19:08.643Z,17.40
2017-10-04T01:21:36.150Z,17.30
2017-10-04T01:24:03.630Z,17.20
2017-10-04T01:26:31.122Z,17.20
2017-10-04T01:28:58.611Z,17.30
2017-10-04T01:31:26.923Z,17.30
2017-10-04T01:33:54.439Z,17.30
2017-10-04T01:36:22.694Z,17.30
2017-10-04T01:38:50.191Z,17.20
2017-10-04T01:41:18.451Z,17.30
2017-10-04T01:43:46.734Z,17.30
2017-10-04T01:46:14.982Z,17.30
2017-10-04T01:48:42.470Z,17.20
2017-10-04T01:51:10.718Z,17.20
2017-10-04T01:53:38.210Z,17.20
2017-10-04T01:56:06.501Z,17.20
2017-10-04T01:58:34.031Z,17.20
2017-10-04T02:01:01.532Z,17.20
2017-10-04T02:03:29.039Z,17.40
2017-10-04T02:05:58.048Z,17.20
2017-10-04T02:08:25.571Z,17.20
2017-10-04T02:10:53.049Z,17.20
2017-10-04T02:13:20.542Z,17.20
2017-10-04T02:15:48.805Z,17.40
2017-10-04T02:18:16.293Z,17.40
2017-10-04T02:20:43.972Z,17.80
2017-10-04T02:23:11.458Z,17.80
2017-10-04T02:25:38.935Z,17.70
2017-10-04T02:28:06.434Z,17.50
2017-10-04T02:30:33.934Z,17.30
2017-10-04T02:33:01.462Z,17.30
2017-10-04T02:35:29.024Z,17.30
2017-10-04T02:37:56.517Z,17.20
2017-10-04T02:40:24.024Z,17.20
2017-10-04T02:42:51.514Z,17.20
2017-10-04T02:45:19.004Z,17.20
2017-10-04T02:47:46.490Z,17.20
2017-10-04T02:50:14.750Z,17.20
2017-10-04T02:52:42.237Z,17.10
2017-10-04T02:55:10.478Z,17.20
2017-10-04T02:57:37.964Z,17.20
2017-10-04T03:00:06.219Z,17.20
2017-10-04T03:02:33.709Z,17.10
2017-10-04T03:05:01.953Z,17.20
2017-10-04T03:07:29.428Z,17.10
2017-10-04T03:09:57.683Z,17.20
2017-10-04T03:12:25.165Z,17.10
2017-10-04T03:14:53.408Z,17.20
2017-10-04T03:17:21.037Z,17.20
2017-10-04T03:19:48.658Z,17.20
2017-10-04T03:22:16.925Z,17.20
2017-10-04T03:24:45.101Z,17.20
2017-10-04T03:27:12.899Z,17.20
2017-10-04T03:29:40.811Z,17.20
2017-10-04T03:32:08.295Z,17.10
2017-10-04T03:34:36.916Z,17.10
2017-10-04T03:37:04.407Z,17.10
2017-10-04T03:39:33.674Z,17.10
2017-10-04T03:42:01.362Z,17.00
2017-10-04T03:44:29.841Z,17.00
2017-10-04T03:46:58.864Z,16.90
2017-10-04T03:49:26.603Z,16.90
2017-10-04T03:51:54.625Z,17.00
2017-10-04T03:54:22.214Z,17.00
2017-10-04T03:56:49.700Z,17.00
2017-10-04T03:59:18.106Z,17.00
2017-10-04T04:01:45.647Z,17.00
2017-10-04T04:04:13.179Z,17.00
2017-10-04T04:06:40.691Z,17.00
2017-10-04T04:09:09.391Z,17.00
2017-10-04T04:11:36.907Z,17.00
2017-10-04T04:14:05.380Z,17.00
2017-10-04T04:16:32.876Z,17.00
2017-10-04T04:19:00.603Z,17.00
2017-10-04T04:21:29.017Z,16.90
2017-10-04T04:23:56.511Z,16.80
2017-10-04T04:26:25.131Z,16.90
2017-10-04T04:28:52.752Z,16.80
2017-10-04T04:31:21.020Z,16.80
2017-10-04T04:33:49.298Z,16.90
2017-10-04T04:36:16.789Z,16.90
2017-10-04T04:38:56.062Z,16.90
2017-10-04T04:41:23.541Z,16.90
2017-10-04T04:43:51.805Z,16.90
2017-10-04T04:46:19.301Z,16.90
2017-10-04T04:48:47.562Z,16.80
2017-10-04T04:51:15.042Z,16.70
2017-10-04T04:53:43.310Z,16.70
2017-10-04T04:56:11.574Z,16.70
2017-10-04T04:58:39.112Z,16.70
2017-10-04T05:01:06.603Z,16.70
2017-10-04T05:03:34.884Z,16.60
2017-10-04T05:06:03.128Z,16.60
2017-10-04T05:08:30.616Z,16.60
2017-10-04T05:10:58.899Z,16.50
2017-10-04T05:13:27.150Z,16.40
2017-10-04T05:15:54.636Z,16.40
2017-10-04T05:18:22.888Z,16.50
2017-10-04T05:20:50.395Z,16.40
2017-10-04T05:23:17.932Z,16.50
2017-10-04T05:25:46.177Z,16.50
2017-10-04T05:28:13.675Z,16.50
2017-10-04T05:30:41.946Z,16.40
2017-10-04T05:33:10.202Z,16.40
2017-10-04T05:35:37.687Z,16.40
2017-10-04T05:38:05.933Z,16.40
2017-10-04T05:40:33.446Z,16.40
2017-10-04T05:43:00.954Z,16.40
2017-10-04T05:45:28.451Z,16.40
2017-10-04T05:47:55.953Z,16.40
2017-10-04T05:50:23.438Z,16.40
2017-10-04T05:52:50.952Z,16.40
2017-10-04T05:55:18.454Z,16.40
2017-10-04T05:57:45.969Z,16.30
2017-10-04T06:00:13.459Z,16.30
2017-10-04T06:02:40.950Z,16.30
2017-10-04T06:05:09.240Z,16.30
2017-10-04T06:07:36.762Z,16.30
2017-10-04T06:10:04.259Z,16.30
2017-10-04T06:12:32.526Z,16.30
2017-10-04T06:15:00.787Z,16.40
2017-10-04T06:17:28.278Z,16.30
2017-10-04T06:19:55.775Z,16.50
2017-10-04T06:22:23.258Z,16.40
2017-10-04T06:24:52.257Z,16.40
2017-10-04T06:27:19.746Z,16.40
2017-10-04T06:29:48.023Z,16.40
2017-10-04T06:32:15.517Z,16.40
2017-10-04T06:34:43.010Z,16.40
2017-10-04T06:37:10.503Z,16.40
2017-10-04T06:39:37.994Z,16.40
2017-10-04T06:42:05.502Z,16.50
2017-10-04T06:44:33.791Z,16.50
2017-10-04T06:47:02.095Z,16.50
2017-10-04T06:49:29.586Z,16.40
2017-10-04T06:51:57.074Z,16.50
2017-10-04T06:54:25.324Z,16.50
2017-10-04T06:56:52.809Z,16.50
2017-10-04T06:59:21.101Z,16.50
2017-10-04T07:01:49.345Z,16.50
2017-10-04T07:04:17.597Z,16.50
2017-10-04T07:06:45.111Z,16.50
2017-10-04T07:09:13.371Z,16.60
2017-10-04T07:11:41.650Z,16.60
2017-10-04T07:14:09.143Z,16.60
2017-10-04T07:16:36.645Z,16.70
2017-10-04T07:19:04.150Z,16.80
2017-10-04T07:21:31.673Z,16.80
2017-10-04T07:23:59.161Z,16.80
2017-10-04T07:26:27.423Z,16.70
2017-10-04T07:28:55.718Z,16.80
2017-10-04T07:31:24.879Z,16.80
2017-10-04T07:33:52.377Z,16.80
2017-10-04T07:36:20.625Z,16.80
2017-10-04T07:38:48.119Z,16.80
2017-10-04T07:41:15.608Z,16.90
2017-10-04T07:43:43.119Z,16.90
2017-10-04T07:46:11.494Z,17.00
2017-10-04T07:48:39.814Z,17.00
2017-10-04T07:51:07.316Z,17.00
2017-10-04T07:53:36.325Z,17.20
2017-10-04T07:56:04.607Z,17.20
2017-10-04T07:58:32.899Z,17.40
2017-10-04T08:01:01.154Z,17.20
2017-10-04T08:03:29.419Z,17.30
2017-10-04T08:05:56.929Z,17.20
2017-10-04T08:08:24.434Z,17.60
2017-10-04T08:10:51.926Z,18.20
2017-10-04T08:13:20.209Z,17.60
2017-10-04T08:15:48.480Z,17.80
2017-10-04T08:18:16.785Z,17.60
2017-10-04T08:20:44.269Z,17.60
2017-10-04T08:23:11.745Z,17.70
2017-10-04T08:25:39.234Z,17.50
2017-10-04T08:28:07.496Z,17.40
2017-10-04T08:30:35.923Z,17.40
2017-10-04T08:33:03.427Z,17.40
2017-10-04T08:35:31.686Z,17.40
2017-10-04T08:37:59.179Z,17.40
2017-10-04T08:40:27.443Z,17.40
2017-10-04T08:42:55.710Z,17.60
2017-10-04T08:45:23.227Z,17.60
2017-10-04T08:47:56.688Z,17.70
2017-10-04T08:50:24.192Z,17.60
2017-10-04T08:52:51.695Z,17.60
2017-10-04T08:55:19.178Z,17.70
2017-10-04T08:57:47.547Z,17.90
2017-10-04T09:00:15.832Z,18.10
2017-10-04T09:02:44.117Z,18.10
2017-10-04T09:05:24.358Z,18.20
2017-10-04T09:07:52.644Z,18.20
2017-10-04T09:10:20.923Z,18.20
2017-10-04T09:12:49.169Z,18.20
2017-10-04T09:15:16.656Z,18.20
2017-10-04T09:17:44.952Z,18.10
2017-10-04T09:20:12.476Z,18.10
2017-10-04T09:22:40.004Z,18.20
2017-10-04T09:25:07.579Z,18.60
2017-10-04T09:27:35.086Z,18.70
2017-10-04T09:30:03.490Z,18.60
2017-10-04T09:32:31.112Z,18.50
2017-10-04T09:34:59.388Z,18.40
2017-10-04T09:37:27.641Z,18.40
2017-10-04T09:39:55.155Z,18.30
2017-10-04T09:42:22.654Z,18.20
2017-10-04T09:44:50.158Z,18.20
2017-10-04T09:47:18.443Z,18.80
2017-10-04T09:49:45.952Z,18.70
2017-10-04T09:52:13.451Z,18.80
2017-10-04T09:54:41.715Z,18.70
2017-10-04T09:57:09.968Z,18.80
2017-10-04T09:59:37.508Z,18.80
2017-10-04T10:02:05.004Z,18.90
2017-10-04T10:04:33.292Z,18.60
2017-10-04T10:07:01.568Z,18.80
2017-10-04T10:09:29.841Z,18.90
2017-10-04T10:11:58.110Z,19.20
2017-10-04T10:14:25.617Z,19.20
2017-10-04T10:16:54.067Z,19.40
2017-10-04T10:19:20.689Z,19.10
2017-10-04T10:21:48.945Z,18.80
2017-10-04T10:24:16.425Z,18.80
2017-10-04T10:26:43.916Z,18.70
2017-10-04T10:29:12.174Z,18.70
2017-10-04T10:31:40.450Z,19.10
2017-10-04T10:34:08.723Z,19.00
2017-10-04T10:36:37.008Z,18.80
2017-10-04T10:39:05.270Z,19.20
2017-10-04T10:41:32.767Z,19.20
2017-10-04T10:44:00.265Z,19.40
2017-10-04T10:46:27.762Z,19.50
2017-10-04T10:48:56.020Z,19.10
2017-10-04T10:51:23.505Z,19.10
2017-10-04T10:53:51.776Z,19.00
2017-10-04T10:56:20.028Z,18.90
2017-10-04T10:58:47.529Z,18.80
2017-10-04T11:01:15.816Z,19.60
2017-10-04T11:03:43.390Z,19.50
2017-10-04T11:06:10.888Z,19.80
2017-10-04T11:08:38.383Z,19.50
2017-10-04T11:11:06.637Z,19.20
2017-10-04T11:13:34.908Z,19.10
2017-10-04T11:16:02.397Z,19.10
2017-10-04T11:18:30.757Z,19.10
2017-10-04T11:20:59.012Z,19.30
2017-10-04T11:23:26.518Z,19.30
2017-10-04T11:25:54.020Z,20.10
2017-10-04T11:28:21.520Z,20.30
2017-10-04T11:30:49.779Z,20.00
2017-10-04T11:33:17.261Z,20.00
2017-10-04T11:35:45.601Z,19.50
2017-10-04T11:38:13.115Z,19.40
2017-10-04T11:40:40.611Z,19.50
2017-10-04T11:43:08.263Z,19.60
2017-10-04T11:45:35.764Z,19.80
2017-10-04T11:48:03.245Z,19.50
2017-10-04T11:50:31.523Z,19.80
2017-10-04T11:52:59.782Z,19.70
2017-10-04T11:55:28.038Z,19.70
2017-10-04T11:57:55.522Z,19.70
2017-10-04T12:00:23.788Z,19.60
2017-10-04T12:02:52.792Z,19.60
2017-10-04T12:05:21.074Z,19.90
2017-10-04T12:07:49.334Z,19.70
2017-10-04T12:10:17.601Z,20.00
2017-10-04T12:12:45.099Z,20.00
2017-10-04T12:15:13.354Z,19.70
2017-10-04T12:17:41.625Z,20.10
2017-10-04T12:20:09.124Z,20.00
2017-10-04T12:22:36.619Z,20.00
2017-10-04T12:25:04.109Z,20.10
2017-10-04T12:27:31.602Z,19.90
2017-10-04T12:29:59.175Z,20.40
2017-10-04T12:32:26.680Z,20.20
2017-10-04T12:34:54.947Z,20.30
2017-10-04T12:37:22.443Z,20.30
2017-10-04T12:39:50.706Z,20.30
2017-10-04T12:42:18.195Z,20.30
2017-10-04T12:44:45.695Z,20.30
2017-10-04T12:47:13.191Z,20.20
2017-10-04T12:49:41.446Z,20.00
2017-10-04T12:52:09.702Z,20.00
2017-10-04T12:54:37.199Z,19.90
2017-10-04T12:57:05.468Z,20.10
2017-10-04T12:59:32.960Z,20.00
2017-10-04T13:02:00.479Z,20.10
2017-10-04T13:04:27.975Z,20.20
2017-10-04T13:06:55.492Z,20.30
2017-10-04T13:09:22.978Z,20.50
2017-10-04T13:11:51.243Z,20.20
2017-10-04T13:14:20.228Z,20.10
2017-10-04T13:16:48.550Z,20.20
2017-10-04T13:19:16.043Z,20.20
2017-10-04T13:21:43.544Z,20.30
2017-10-04T13:24:11.811Z,20.40
2017-10-04T13:26:39.312Z,20.30
2017-10-04T13:29:06.827Z,20.50
2017-10-04T13:31:35.093Z,20.70
2017-10-04T13:34:02.596Z,20.60
2017-10-04T13:36:30.091Z,20.60
2017-10-04T13:38:57.573Z,20.50
2017-10-04T13:41:25.069Z,20.50
2017-10-04T13:43:53.330Z,20.60
2017-10-04T13:46:21.591Z,20.70
2017-10-04T13:48:49.854Z,20.50
2017-10-04T13:51:17.341Z,20.50
2017-10-04T13:53:45.602Z,20.70
2017-10-04T13:56:13.086Z,20.60
2017-10-04T13:58:41.343Z,20.40
2017-10-04T14:01:08.835Z,20.40
2017-10-04T14:03:36.321Z,20.30
2017-10-04T14:06:03.816Z,20.50
2017-10-04T14:08:32.822Z,20.40
2017-10-04T14:11:00.313Z,20.40
2017-10-04T14:13:27.891Z,20.40
2017-10-04T14:15:55.383Z,20.50
2017-10-04T14:18:22.879Z,20.60
2017-10-04T14:20:51.139Z,20.60
2017-10-04T14:23:18.636Z,20.60
2017-10-04T14:25:46.121Z,20.60
2017-10-04T14:28:13.617Z,20.70
2017-10-04T14:30:41.878Z,20.60
2017-10-04T14:33:09.372Z,20.50
2017-10-04T14:35:37.630Z,20.60
2017-10-04T14:38:05.109Z,20.60
2017-10-04T14:40:33.362Z,20.50
2017-10-04T14:43:00.839Z,20.50
2017-10-04T14:45:29.102Z,20.60
2017-10-04T14:47:57.359Z,20.70
2017-10-04T14:50:24.852Z,20.70
2017-10-04T14:52:53.109Z,20.80
2017-10-04T14:55:21.389Z,20.80
2017-10-04T14:57:48.873Z,20.80
2017-10-04T15:00:17.135Z,20.80
2017-10-04T15:02:45.388Z,20.70
2017-10-04T15:05:13.295Z,20.70
2017-10-04T15:07:40.968Z,20.70
2017-10-04T15:10:08.641Z,20.70
2017-10-04T15:12:36.143Z,20.60
2017-10-04T15:15:04.891Z,20.50
2017-10-04T15:17:32.733Z,20.50
2017-10-04T15:20:01.302Z,20.70
2017-10-04T15:22:29.708Z,20.70
2017-10-04T15:24:57.413Z,20.60
2017-10-04T15:27:27.122Z,20.60
2017-10-04T15:29:55.226Z,20.60
2017-10-04T15:32:22.929Z,20.70
2017-10-04T15:34:50.747Z,20.70
2017-10-04T15:37:19.331Z,20.60
2017-10-04T15:39:47.051Z,20.60
2017-10-04T15:42:15.055Z,20.60
2017-10-04T15:44:42.559Z,20.60
2017-10-04T15:47:10.812Z,20.50
2017-10-04T15:49:38.301Z,20.50
2017-10-04T15:52:05.799Z,20.50
2017-10-04T15:54:33.316Z,20.50
2017-10-04T15:57:00.807Z,20.50
2017-10-04T15:59:28.310Z,20.60
2017-10-04T16:01:56.575Z,20.60
2017-10-04T16:04:24.109Z,20.60
2017-10-04T16:06:51.604Z,20.50
2017-10-04T16:09:19.131Z,20.50
2017-10-04T16:11:46.626Z,20.40
2017-10-04T16:14:15.259Z,20.50
2017-10-04T16:16:43.021Z,20.40
2017-10-04T16:19:11.387Z,20.30
2017-10-04T16:21:38.907Z,20.30
2017-10-04T16:24:07.203Z,20.30
2017-10-04T16:26:35.476Z,20.30
2017-10-04T16:29:04.285Z,20.40
2017-10-04T16:31:33.320Z,20.30
2017-10-04T16:34:00.828Z,20.30
2017-10-04T16:36:30.486Z,20.30
2017-10-04T16:38:57.982Z,20.30
2017-10-04T16:41:26.984Z,20.30
2017-10-04T16:43:55.404Z,20.30
2017-10-04T16:46:23.246Z,20.20
2017-10-04T16:48:51.514Z,20.30
2017-10-04T16:51:20.105Z,20.30
2017-10-04T16:53:48.526Z,20.30
2017-10-04T16:56:16.036Z,20.20
2017-10-04T16:58:45.067Z,20.20
2017-10-04T17:01:12.588Z,20.10
2017-10-04T17:03:40.907Z,20.20
2017-10-04T17:06:08.421Z,20.20
2017-10-04T17:08:36.671Z,20.10
2017-10-04T17:11:04.163Z,20.10
2017-10-04T17:13:32.431Z,20.20
2017-10-04T17:15:59.926Z,20.10
2017-10-04T17:18:27.431Z,20.10
2017-10-04T17:20:54.928Z,20.20
2017-10-04T17:23:23.189Z,20.10
2017-10-04T17:25:51.451Z,20.10
2017-10-04T17:28:19.693Z,20.10
2017-10-04T17:30:47.175Z,20.00
2017-10-04T17:33:14.673Z,20.10
2017-10-04T17:35:42.913Z,20.10
2017-10-04T17:38:10.441Z,20.00
2017-10-04T17:40:37.931Z,20.00
2017-10-04T17:43:05.497Z,20.10
2017-10-04T17:45:32.972Z,20.00
2017-10-04T17:48:00.582Z,20.00
2017-10-04T17:50:28.082Z,20.10
2017-10-04T17:52:55.570Z,20.10
2017-10-04T17:55:23.966Z,20.00
2017-10-04T17:57:51.451Z,20.00
2017-10-04T18:00:18.939Z,20.00
2017-10-04T18:02:46.427Z,20.00
2017-10-04T18:05:14.691Z,20.00
2017-10-04T18:07:42.951Z,20.00
2017-10-04T18:10:10.443Z,20.00
2017-10-04T18:12:38.691Z,19.90
2017-10-04T18:15:06.178Z,19.90
2017-10-04T18:17:34.430Z,19.90
2017-10-04T18:20:01.927Z,19.90
2017-10-04T18:22:29.426Z,19.90
2017-10-04T18:24:56.907Z,19.90
2017-10-04T18:27:24.394Z,19.80
2017-10-04T18:29:52.645Z,19.80
2017-10-04T18:32:20.903Z,19.80
2017-10-04T18:34:48.388Z,19.80
2017-10-04T18:37:16.633Z,19.80
2017-10-04T18:39:44.163Z,19.70
2017-10-04T18:42:11.646Z,19.80
2017-10-04T18:44:39.117Z,19.70
2017-10-04T18:47:06.587Z,19.70
2017-10-04T18:49:34.072Z,19.70
2017-10-04T18:52:02.341Z,19.60
2017-10-04T18:54:30.603Z,19.70
2017-10-04T18:56:58.086Z,19.60
2017-10-04T18:59:26.338Z,19.60
2017-10-04T19:01:53.822Z,19.60
2017-10-04T19:04:22.079Z,19.70
2017-10-04T19:06:49.567Z,19.60
2017-10-04T19:09:17.068Z,19.70
2017-10-04T19:11:44.546Z,19.60
2017-10-04T19:14:12.046Z,19.60
2017-10-04T19:16:39.543Z,19.50
2017-10-04T19:19:07.042Z,19.50
2017-10-04T19:21:35.301Z,19.50
2017-10-04T19:24:02.791Z,19.50
2017-10-04T19:26:31.053Z,19.80
2017-10-04T19:28:59.311Z,19.70
2017-10-04T19:31:26.798Z,19.70
2017-10-04T19:33:55.229Z,19.50
2017-10-04T19:36:22.976Z,19.50
2017-10-04T19:38:50.463Z,19.50
2017-10-04T19:41:17.953Z,19.40
2017-10-04T19:43:46.209Z,19.40
2017-10-04T19:46:13.686Z,19.30
2017-10-04T19:48:41.949Z,19.40
2017-10-04T19:51:09.444Z,19.30
2017-10-04T19:53:37.689Z,19.20
2017-10-04T19:56:05.179Z,19.20
2017-10-04T19:58:33.444Z,19.30
2017-10-04T20:01:01.695Z,19.40
2017-10-04T20:03:29.198Z,19.30
2017-10-04T20:05:56.686Z,19.30
2017-10-04T20:08:24.355Z,18.70
2017-10-04T20:10:52.656Z,18.80
2017-10-04T20:13:20.146Z,18.80
2017-10-04T20:15:48.388Z,18.90
2017-10-04T20:18:15.894Z,18.80
2017-10-04T20:20:43.373Z,18.80
2017-10-04T20:23:10.857Z,18.80
2017-10-04T20:25:38.351Z,18.80
2017-10-04T20:28:07.507Z,18.80
2017-10-04T20:30:34.985Z,18.80
2017-10-04T20:33:02.469Z,18.80
2017-10-04T20:35:30.789Z,18.70
2017-10-04T20:37:58.283Z,18.70
2017-10-04T20:40:25.802Z,18.70
2017-10-04T20:42:53.298Z,18.70
2017-10-04T20:45:20.785Z,18.70
2017-10-04T20:47:49.037Z,18.60
2017-10-04T20:50:16.522Z,18.60
2017-10-04T20:52:44.761Z,18.50
2017-10-04T20:55:12.246Z,18.50
2017-10-04T20:57:40.497Z,18.40
2017-10-04T21:00:07.982Z,18.40
2017-10-04T21:02:36.231Z,18.40
2017-10-04T21:05:03.709Z,18.40
2017-10-04T21:07:31.198Z,18.40
2017-10-04T21:09:59.446Z,18.50
2017-10-04T21:12:26.932Z,18.40
2017-10-04T21:14:55.190Z,18.40
2017-10-04T21:17:23.447Z,18.60
2017-10-04T21:19:50.935Z,18.50
2017-10-04T21:22:19.192Z,19.00
2017-10-04T21:24:46.674Z,18.90
2017-10-04T21:27:14.927Z,18.50
2017-10-04T21:29:42.421Z,18.50
2017-10-04T21:32:10.671Z,18.40
2017-10-04T21:34:38.150Z,18.30
2017-10-04T21:37:06.407Z,18.30
2017-10-04T21:39:34.667Z,18.30
2017-10-04T21:42:02.168Z,18.30
2017-10-04T21:44:29.658Z,18.30
2017-10-04T21:46:57.138Z,18.30
2017-10-04T21:49:24.632Z,18.20
2017-10-04T21:51:52.882Z,18.50
2017-10-04T21:54:20.367Z,18.50
2017-10-04T21:56:48.624Z,18.40
2017-10-04T21:59:16.097Z,18.40
2017-10-04T22:01:44.355Z,18.30
2017-10-04T22:04:11.847Z,18.30
2017-10-04T22:06:40.114Z,18.30
2017-10-04T22:09:08.362Z,18.20
2017-10-04T22:11:53.042Z,18.20
2017-10-04T22:14:21.007Z,18.10
2017-10-04T22:16:48.493Z,18.00
2017-10-04T22:19:16.748Z,18.00
2017-10-04T22:21:44.237Z,17.90
2017-10-04T22:24:11.731Z,18.10
2017-10-04T22:26:39.224Z,18.10
2017-10-04T22:29:06.706Z,18.10
2017-10-04T22:31:34.970Z,18.10
2017-10-04T22:34:03.242Z,18.10
2017-10-04T22:36:31.508Z,18.10
2017-10-04T22:38:58.985Z,18.10
2017-10-04T22:41:27.238Z,18.00
2017-10-04T22:43:54.731Z,17.90
2017-10-04T22:46:22.982Z,17.90
2017-10-04T22:48:51.342Z,17.90
2017-10-04T22:51:18.838Z,17.90
2017-10-04T22:53:47.090Z,17.90
2017-10-04T22:56:14.570Z,17.80
2017-10-04T22:58:42.817Z,17.90
2017-10-04T23:01:10.311Z,17.90
2017-10-04T23:03:38.563Z,17.90
2017-10-04T23:06:06.055Z,17.90
2017-10-04T23:08:34.312Z,18.10
2017-10-04T23:11:01.798Z,18.10
2017-10-04T23:13:29.290Z,18.20
2017-10-04T23:15:56.780Z,18.40
2017-10-04T23:18:24.275Z,18.10
2017-10-04T23:20:51.753Z,18.00
2017-10-04T23:23:19.242Z,18.00
2017-10-04T23:25:46.726Z,18.00
2017-10-04T23:28:14.220Z,17.90
2017-10-04T23:30:41.710Z,17.80
2017-10-04T23:33:09.188Z,17.80
2017-10-04T23:35:36.675Z,17.70
2017-10-04T23:38:04.947Z,17.60
2017-10-04T23:40:33.266Z,17.70
2017-10-04T23:43:00.745Z,17.60
2017-10-04T23:45:28.217Z,17.60
2017-10-04T23:47:55.697Z,17.70
2017-10-04T23:50:23.964Z,17.70
2017-10-04T23:52:51.451Z,17.60
2017-10-04T23:55:19.698Z,17.70
2017-10-04T23:57:47.210Z,17.60
